createdAt,value
2018-12-14T00:01:24.193Z,54.90
2018-12-14T00:03:51.669Z,53.80
2018-12-14T00:06:19.115Z,53.70
2018-12-14T00:08:46.586Z,52.80
2018-12-14T00:11:14.037Z,52.60
2018-12-14T00:13:41.504Z,52.60
2018-12-14T00:16:08.991Z,52.90
2018-12-14T00:18:36.466Z,53.40
2018-12-14T00:21:04.025Z,53.50
2018-12-14T00:23:31.490Z,53.70
2018-12-14T00:25:58.957Z,53.30
2018-12-14T00:28:26.409Z,53.00
2018-12-14T00:30:53.879Z,52.50
2018-12-14T00:33:21.394Z,52.50
2018-12-14T00:35:49.038Z,52.70
2018-12-14T00:38:16.510Z,52.50
2018-12-14T00:40:43.982Z,52.90
2018-12-14T00:43:11.442Z,52.60
2018-12-14T00:45:38.913Z,52.70
2018-12-14T00:48:06.361Z,52.30
2018-12-14T00:50:33.829Z,51.60
2018-12-14T00:53:01.284Z,52.30
2018-12-14T00:55:28.742Z,52.70
2018-12-14T00:57:56.219Z,51.80
2018-12-14T01:00:23.712Z,51.60
2018-12-14T01:02:51.174Z,51.90
2018-12-14T01:05:18.736Z,52.00
2018-12-14T01:07:46.188Z,51.90
2018-12-14T01:10:14.618Z,52.60
2018-12-14T01:12:42.104Z,53.00
2018-12-14T01:15:09.561Z,51.80
2018-12-14T01:17:37.048Z,52.10
2018-12-14T01:20:07.656Z,52.40
2018-12-14T01:22:35.285Z,52.50
2018-12-14T01:25:03.224Z,52.20
2018-12-14T01:27:30.701Z,52.80
2018-12-14T01:29:58.163Z,51.90
2018-12-14T01:32:25.613Z,52.00
2018-12-14T01:34:53.087Z,51.60
2018-12-14T01:37:20.574Z,52.30
2018-12-14T01:39:48.061Z,52.70
2018-12-14T01:42:15.525Z,52.60
2018-12-14T01:44:42.983Z,52.50
2018-12-14T01:47:10.455Z,51.40
2018-12-14T01:49:38.009Z,52.40
2018-12-14T01:52:05.611Z,51.30
2018-12-14T01:54:33.065Z,52.40
2018-12-14T01:57:00.523Z,51.80
2018-12-14T01:59:27.997Z,52.90
2018-12-14T02:01:55.462Z,51.90
2018-12-14T02:04:22.933Z,52.30
2018-12-14T02:06:50.398Z,52.30
2018-12-14T02:09:17.907Z,52.30
2018-12-14T02:11:45.358Z,51.70
2018-12-14T02:14:12.817Z,52.10
2018-12-14T02:16:41.109Z,52.70
2018-12-14T02:19:08.586Z,53.50
2018-12-14T02:21:36.105Z,53.00
2018-12-14T02:24:03.586Z,52.30
2018-12-14T02:26:31.067Z,52.60
2018-12-14T02:28:58.529Z,52.30
2018-12-14T02:31:26.007Z,51.90
2018-12-14T02:33:53.481Z,52.40
2018-12-14T02:36:21.004Z,52.40
2018-12-14T02:38:48.463Z,52.90
2018-12-14T02:41:15.953Z,53.00
2018-12-14T02:43:43.409Z,52.60
2018-12-14T02:46:10.890Z,53.10
2018-12-14T02:48:38.345Z,52.80
2018-12-14T02:51:05.819Z,52.30
2018-12-14T02:53:33.282Z,51.70
2018-12-14T02:56:01.415Z,52.10
2018-12-14T02:58:28.865Z,52.20
2018-12-14T03:00:56.349Z,51.60
2018-12-14T03:03:23.874Z,51.80
2018-12-14T03:05:51.318Z,51.10
2018-12-14T03:08:18.887Z,51.40
2018-12-14T03:10:46.359Z,51.50
2018-12-14T03:13:13.845Z,51.50
2018-12-14T03:15:41.301Z,51.70
2018-12-14T03:18:08.770Z,51.70
2018-12-14T03:20:36.225Z,51.80
2018-12-14T03:23:03.694Z,51.80
2018-12-14T03:25:31.148Z,52.40
2018-12-14T03:27:58.630Z,52.40
2018-12-14T03:30:26.106Z,52.70
2018-12-14T03:32:53.953Z,52.20
2018-12-14T03:35:21.418Z,52.40
2018-12-14T03:37:48.875Z,52.10
2018-12-14T03:40:16.324Z,52.30
2018-12-14T03:42:44.570Z,53.10
2018-12-14T03:45:12.127Z,53.20
2018-12-14T03:47:39.676Z,52.80
2018-12-14T03:50:07.296Z,52.50
2018-12-14T03:52:34.762Z,51.80
2018-12-14T03:55:02.281Z,52.80
2018-12-14T03:57:29.782Z,51.40
2018-12-14T03:59:57.243Z,52.20
2018-12-14T04:02:24.750Z,51.90
2018-12-14T04:04:52.265Z,51.80
2018-12-14T04:07:19.716Z,51.90
2018-12-14T04:09:47.175Z,52.90
2018-12-14T04:12:14.635Z,52.40
2018-12-14T04:14:42.179Z,52.10
2018-12-14T04:17:09.624Z,52.00
2018-12-14T04:19:37.104Z,52.60
2018-12-14T04:22:04.563Z,52.10
2018-12-14T04:24:32.059Z,51.10
2018-12-14T04:26:59.509Z,50.30
2018-12-14T04:29:26.994Z,51.00
2018-12-14T04:31:54.446Z,51.50
2018-12-14T04:34:21.917Z,51.40
2018-12-14T04:36:49.377Z,51.20
2018-12-14T04:39:16.918Z,51.90
2018-12-14T04:41:44.415Z,51.60
2018-12-14T04:44:11.863Z,50.90
2018-12-14T04:46:39.336Z,51.80
2018-12-14T04:49:06.798Z,51.20
2018-12-14T04:51:34.258Z,50.80
2018-12-14T04:54:01.713Z,50.60
2018-12-14T04:56:29.187Z,51.40
2018-12-14T04:58:56.642Z,50.00
2018-12-14T05:01:24.111Z,50.60
2018-12-14T05:03:51.586Z,51.20
2018-12-14T05:06:19.054Z,50.80
2018-12-14T05:08:46.529Z,51.00
2018-12-14T05:11:13.991Z,50.60
2018-12-14T05:13:41.443Z,51.00
2018-12-14T05:16:08.903Z,50.50
2018-12-14T05:18:36.400Z,50.20
2018-12-14T05:21:03.877Z,50.80
2018-12-14T05:23:31.321Z,50.90
2018-12-14T05:25:58.797Z,50.60
2018-12-14T05:28:26.320Z,50.10
2018-12-14T05:30:53.773Z,49.50
2018-12-14T05:33:21.234Z,50.10
2018-12-14T05:35:48.706Z,50.50
2018-12-14T05:38:16.194Z,50.60
2018-12-14T05:40:43.660Z,51.20
2018-12-14T05:43:11.161Z,50.50
2018-12-14T05:45:38.627Z,50.60
2018-12-14T05:48:06.103Z,51.30
2018-12-14T05:50:33.558Z,51.40
2018-12-14T05:53:01.029Z,50.70
2018-12-14T05:55:28.484Z,50.50
2018-12-14T05:57:55.964Z,51.20
2018-12-14T06:00:23.426Z,51.80
2018-12-14T06:02:50.898Z,51.70
2018-12-14T06:05:18.522Z,51.90
2018-12-14T06:07:46.006Z,52.80
2018-12-14T06:10:13.543Z,53.40
2018-12-14T06:12:41.031Z,52.80
2018-12-14T06:15:08.512Z,53.50
2018-12-14T06:17:35.987Z,53.10
2018-12-14T06:20:03.909Z,53.20
2018-12-14T06:22:31.370Z,53.40
2018-12-14T06:24:58.841Z,52.30
2018-12-14T06:27:26.336Z,52.90
2018-12-14T06:29:53.818Z,52.80
2018-12-14T06:32:21.300Z,52.50
2018-12-14T06:34:48.752Z,52.90
2018-12-14T06:37:16.479Z,53.80
2018-12-14T06:39:43.948Z,53.00
2018-12-14T06:42:11.879Z,52.70
2018-12-14T06:44:39.368Z,52.80
2018-12-14T06:47:06.830Z,52.60
2018-12-14T06:49:34.400Z,53.00
2018-12-14T06:52:01.870Z,52.40
2018-12-14T06:54:29.339Z,52.60
2018-12-14T06:56:56.822Z,51.70
2018-12-14T06:59:24.296Z,52.20
2018-12-14T07:01:52.503Z,52.20
2018-12-14T07:04:19.965Z,52.20
2018-12-14T07:06:47.413Z,52.60
2018-12-14T07:09:14.879Z,53.20
2018-12-14T07:11:42.353Z,53.90
2018-12-14T07:14:09.838Z,53.80
2018-12-14T07:16:37.379Z,54.40
2018-12-14T07:19:04.833Z,53.60
2018-12-14T07:21:32.322Z,53.20
2018-12-14T07:23:59.785Z,53.00
2018-12-14T07:26:27.333Z,52.80
2018-12-14T07:28:55.172Z,53.70
2018-12-14T07:31:23.124Z,53.90
2018-12-14T07:33:50.581Z,53.40
2018-12-14T07:36:18.058Z,53.80
2018-12-14T07:38:48.312Z,54.40
2018-12-14T07:41:15.029Z,53.60
2018-12-14T07:43:42.474Z,54.40
2018-12-14T07:46:09.960Z,52.20
2018-12-14T07:48:37.430Z,51.10
2018-12-14T07:51:04.966Z,51.50
2018-12-14T07:53:32.445Z,51.70
2018-12-14T07:55:59.998Z,51.20
2018-12-14T07:58:27.490Z,51.70
2018-12-14T08:00:54.942Z,51.10
2018-12-14T08:03:22.425Z,51.20
2018-12-14T08:05:49.903Z,51.00
2018-12-14T08:08:17.401Z,51.10
2018-12-14T08:10:45.831Z,51.40
2018-12-14T08:13:13.299Z,51.40
2018-12-14T08:15:40.749Z,50.70
2018-12-14T08:18:08.337Z,51.80
2018-12-14T08:20:35.827Z,51.30
2018-12-14T08:23:03.303Z,50.80
2018-12-14T08:25:30.750Z,50.90
2018-12-14T08:27:58.233Z,49.60
2018-12-14T08:30:25.691Z,49.50
2018-12-14T08:32:53.146Z,49.60
2018-12-14T08:35:20.610Z,49.20
2018-12-14T08:37:48.182Z,49.70
2018-12-14T08:40:16.198Z,49.40
2018-12-14T08:42:43.673Z,49.40
2018-12-14T08:45:11.164Z,49.60
2018-12-14T08:47:38.619Z,49.60
2018-12-14T08:50:06.178Z,49.80
2018-12-14T08:52:34.354Z,50.10
2018-12-14T08:55:01.847Z,49.80
2018-12-14T08:57:29.304Z,49.30
2018-12-14T08:59:56.779Z,49.40
2018-12-14T09:02:24.250Z,49.10
2018-12-14T09:04:51.718Z,48.60
2018-12-14T09:07:24.547Z,48.60
2018-12-14T09:09:48.917Z,48.70
2018-12-14T09:12:16.370Z,49.00
2018-12-14T09:14:43.862Z,49.20
2018-12-14T09:17:11.306Z,49.10
2018-12-14T09:19:38.826Z,50.40
2018-12-14T09:22:06.298Z,49.00
2018-12-14T09:24:33.755Z,50.10
2018-12-14T09:27:01.232Z,49.10
2018-12-14T09:29:28.707Z,49.20
2018-12-14T09:31:56.170Z,49.50
2018-12-14T09:34:23.653Z,48.70
2018-12-14T09:36:51.249Z,48.80
2018-12-14T09:39:18.690Z,48.90
2018-12-14T09:41:46.725Z,49.10
2018-12-14T09:44:14.224Z,49.10
2018-12-14T09:46:41.707Z,49.60
2018-12-14T09:49:09.173Z,49.80
2018-12-14T09:51:36.669Z,49.60
2018-12-14T09:54:04.125Z,49.70
2018-12-14T09:56:31.585Z,49.30
2018-12-14T09:58:59.167Z,49.40
2018-12-14T10:01:26.614Z,50.10
2018-12-14T10:03:54.095Z,50.00
2018-12-14T10:06:21.649Z,50.90
2018-12-14T10:08:49.121Z,50.50
2018-12-14T10:11:16.838Z,49.60
2018-12-14T10:13:44.319Z,50.10
2018-12-14T10:16:12.353Z,50.10
2018-12-14T10:18:40.302Z,49.20
2018-12-14T10:21:07.758Z,49.10
2018-12-14T10:23:35.242Z,48.70
2018-12-14T10:26:02.714Z,48.80
2018-12-14T10:28:30.289Z,49.10
2018-12-14T10:30:57.741Z,48.80
2018-12-14T10:33:25.235Z,48.60
2018-12-14T10:35:52.788Z,48.80
2018-12-14T10:38:20.555Z,48.80
2018-12-14T10:40:48.030Z,48.90
2018-12-14T10:43:15.570Z,49.50
2018-12-14T10:45:43.308Z,48.70
2018-12-14T10:48:10.782Z,49.00
2018-12-14T10:50:39.643Z,49.40
2018-12-14T10:53:09.505Z,49.00
2018-12-14T10:55:36.990Z,50.10
2018-12-14T10:58:04.455Z,50.40
2018-12-14T11:00:37.722Z,50.00
2018-12-14T11:03:05.165Z,50.30
2018-12-14T11:05:32.635Z,49.50
2018-12-14T11:08:00.105Z,49.30
2018-12-14T11:10:27.578Z,49.50
2018-12-14T11:12:55.052Z,49.40
2018-12-14T11:15:22.524Z,49.10
2018-12-14T11:17:50.060Z,49.40
2018-12-14T11:20:18.508Z,50.60
2018-12-14T11:22:45.970Z,49.60
2018-12-14T11:25:13.537Z,50.00
2018-12-14T11:27:41.786Z,49.40
2018-12-14T11:30:09.483Z,49.20
2018-12-14T11:32:37.065Z,49.20
2018-12-14T11:35:04.612Z,49.50
2018-12-14T11:37:32.091Z,49.90
2018-12-14T11:40:00.233Z,49.90
2018-12-14T11:42:27.693Z,50.00
2018-12-14T11:44:55.183Z,49.70
2018-12-14T11:47:22.658Z,50.10
2018-12-14T11:49:50.128Z,49.90
2018-12-14T11:52:17.608Z,50.20
2018-12-14T11:54:45.075Z,50.40
2018-12-14T11:57:12.557Z,49.70
2018-12-14T11:59:40.013Z,50.20
2018-12-14T12:02:08.337Z,49.90
2018-12-14T12:04:35.834Z,50.30
2018-12-14T12:07:03.297Z,50.20
2018-12-14T12:09:30.790Z,49.80
2018-12-14T12:11:58.257Z,49.60
2018-12-14T12:14:27.034Z,49.80
2018-12-14T12:16:54.819Z,49.50
2018-12-14T12:19:22.294Z,49.50
2018-12-14T12:21:49.913Z,50.30
2018-12-14T12:24:17.421Z,50.30
2018-12-14T12:26:44.873Z,50.40
2018-12-14T12:29:12.350Z,50.10
2018-12-14T12:31:39.805Z,50.50
2018-12-14T12:34:07.269Z,50.80
2018-12-14T12:36:34.737Z,50.60
2018-12-14T12:39:02.232Z,49.80
2018-12-14T12:41:29.705Z,49.80
2018-12-14T12:43:57.295Z,49.10
2018-12-14T12:46:24.770Z,49.40
2018-12-14T12:48:52.532Z,50.00
2018-12-14T12:51:20.238Z,50.20
2018-12-14T12:53:47.690Z,50.80
2018-12-14T12:56:15.463Z,50.60
2018-12-14T12:58:42.934Z,50.70
2018-12-14T13:01:11.414Z,50.60
2018-12-14T13:03:38.910Z,50.40
2018-12-14T13:06:06.361Z,50.10
2018-12-14T13:08:33.917Z,49.20
2018-12-14T13:11:01.377Z,50.10
2018-12-14T13:13:28.836Z,49.80
2018-12-14T13:15:56.325Z,49.50
2018-12-14T13:18:23.770Z,50.20
2018-12-14T13:20:51.253Z,50.20
2018-12-14T13:23:18.718Z,50.10
2018-12-14T13:25:46.199Z,50.30
2018-12-14T13:28:14.179Z,50.60
2018-12-14T13:30:41.697Z,49.90
2018-12-14T13:33:09.338Z,49.70
2018-12-14T13:35:36.957Z,50.30
2018-12-14T13:38:04.435Z,50.50
2018-12-14T13:40:31.992Z,50.40
2018-12-14T13:42:59.578Z,50.30
2018-12-14T13:45:27.046Z,49.70
2018-12-14T13:47:54.526Z,50.80
2018-12-14T13:50:21.993Z,50.30
2018-12-14T13:52:49.478Z,50.60
2018-12-14T13:55:17.831Z,50.40
2018-12-14T13:57:45.649Z,50.20
2018-12-14T14:00:13.265Z,50.00
2018-12-14T14:02:40.737Z,49.50
2018-12-14T14:05:08.338Z,49.80
2018-12-14T14:07:35.842Z,50.80
2018-12-14T14:10:04.911Z,50.50
2018-12-14T14:12:32.393Z,50.30
2018-12-14T14:14:59.960Z,50.10
2018-12-14T14:17:27.526Z,50.10
2018-12-14T14:19:55.167Z,50.80
2018-12-14T14:22:22.936Z,50.90
2018-12-14T14:24:50.378Z,51.00
2018-12-14T14:27:17.834Z,50.60
2018-12-14T14:29:46.177Z,50.70
2018-12-14T14:32:13.634Z,49.90
2018-12-14T14:34:41.126Z,50.80
2018-12-14T14:37:08.582Z,50.60
2018-12-14T14:39:36.061Z,50.50
2018-12-14T14:42:03.519Z,49.80
2018-12-14T14:44:31.343Z,49.40
2018-12-14T14:46:59.075Z,49.40
2018-12-14T14:49:26.550Z,49.70
2018-12-14T14:51:54.389Z,50.20
2018-12-14T14:54:22.694Z,49.70
2018-12-14T14:56:50.129Z,50.10
2018-12-14T14:59:17.605Z,50.20
2018-12-14T15:01:45.074Z,50.20
2018-12-14T15:04:12.552Z,49.40
2018-12-14T15:06:40.006Z,49.50
2018-12-14T15:09:08.432Z,49.90
2018-12-14T15:11:35.927Z,50.50
2018-12-14T15:14:03.386Z,51.00
2018-12-14T15:16:30.850Z,51.30
2018-12-14T15:18:58.313Z,51.10
2018-12-14T15:21:25.788Z,50.70
2018-12-14T15:23:53.334Z,50.40
2018-12-14T15:26:20.795Z,50.10
2018-12-14T15:28:48.263Z,50.50
2018-12-14T15:31:15.745Z,51.30
2018-12-14T15:33:43.290Z,51.70
2018-12-14T15:36:10.777Z,50.10
2018-12-14T15:38:41.274Z,50.30
2018-12-14T15:41:08.732Z,48.00
2018-12-14T15:43:36.228Z,48.70
2018-12-14T15:46:03.713Z,48.90
2018-12-14T15:48:31.174Z,49.40
2018-12-14T15:50:58.646Z,48.20
2018-12-14T15:53:26.121Z,48.70
2018-12-14T15:55:53.857Z,48.90
2018-12-14T15:58:21.538Z,48.90
2018-12-14T16:00:48.973Z,49.60
2018-12-14T16:03:16.918Z,48.50
2018-12-14T16:05:45.209Z,49.50
2018-12-14T16:08:12.690Z,48.70
2018-12-14T16:10:43.068Z,48.50
2018-12-14T16:13:10.542Z,48.90
2018-12-14T16:15:38.010Z,49.20
2018-12-14T16:18:05.487Z,49.30
2018-12-14T16:20:32.956Z,49.50
2018-12-14T16:23:00.434Z,49.30
2018-12-14T16:25:27.900Z,49.40
2018-12-14T16:27:55.471Z,49.40
2018-12-14T16:30:22.949Z,49.80
2018-12-14T16:32:50.614Z,49.00
2018-12-14T16:35:18.075Z,49.30
2018-12-14T16:37:45.540Z,48.80
2018-12-14T16:40:13.101Z,48.80
2018-12-14T16:42:40.571Z,48.30
2018-12-14T16:45:08.257Z,48.60
2018-12-14T16:47:35.816Z,48.50
2018-12-14T16:50:04.210Z,48.30
2018-12-14T16:52:31.878Z,48.70
2018-12-14T16:54:59.403Z,48.50
2018-12-14T16:57:26.872Z,48.20
2018-12-14T16:59:54.414Z,48.80
2018-12-14T17:02:21.878Z,49.20
2018-12-14T17:04:49.358Z,49.30
2018-12-14T17:07:17.712Z,49.70
2018-12-14T17:09:45.204Z,49.20
2018-12-14T17:12:12.689Z,49.10
2018-12-14T17:14:40.160Z,49.20
2018-12-14T17:17:07.643Z,49.70
2018-12-14T17:19:35.117Z,49.30
2018-12-14T17:22:02.618Z,49.00
2018-12-14T17:24:30.555Z,49.00
2018-12-14T17:26:58.025Z,50.20
2018-12-14T17:29:25.578Z,49.60
2018-12-14T17:31:53.071Z,49.60
2018-12-14T17:34:20.515Z,49.20
2018-12-14T17:36:48.001Z,49.70
2018-12-14T17:39:15.729Z,49.40
2018-12-14T17:41:43.258Z,48.90
2018-12-14T17:44:10.720Z,49.40
2018-12-14T17:46:38.466Z,49.60
2018-12-14T17:49:05.918Z,49.50
2018-12-14T17:51:33.770Z,48.90
2018-12-14T17:54:01.216Z,48.90
2018-12-14T17:56:28.696Z,49.10
2018-12-14T17:58:56.153Z,49.10
2018-12-14T18:01:23.622Z,49.50
2018-12-14T18:03:51.086Z,50.00
2018-12-14T18:06:19.278Z,49.30
2018-12-14T18:08:46.835Z,49.00
2018-12-14T18:11:14.290Z,49.00
2018-12-14T18:13:41.765Z,48.90
2018-12-14T18:16:09.400Z,48.80
2018-12-14T18:18:36.868Z,49.70
2018-12-14T18:21:04.331Z,49.50
2018-12-14T18:23:31.893Z,49.60
2018-12-14T18:25:59.345Z,49.50
2018-12-14T18:28:26.837Z,49.70
2018-12-14T18:30:54.308Z,48.70
2018-12-14T18:33:21.788Z,48.80
2018-12-14T18:35:49.275Z,48.80
2018-12-14T18:38:16.759Z,48.80
2018-12-14T18:40:44.239Z,49.00
2018-12-14T18:43:11.820Z,49.30
2018-12-14T18:45:39.387Z,49.60
2018-12-14T18:48:06.844Z,49.10
2018-12-14T18:50:34.326Z,49.30
2018-12-14T18:53:01.784Z,49.20
2018-12-14T18:55:29.258Z,49.30
2018-12-14T18:57:56.730Z,48.40
2018-12-14T19:00:24.223Z,48.00
2018-12-14T19:02:51.685Z,48.20
2018-12-14T19:05:19.181Z,48.70
2018-12-14T19:07:46.650Z,48.60
2018-12-14T19:10:14.122Z,48.80
2018-12-14T19:12:42.342Z,48.20
2018-12-14T19:15:09.811Z,47.50
